Latest Weather Observations for Cape Grim

IDT60801

Issued at 5:02 am EDT Thursday 29 January 2015 (issued every 30 minutes, with the page automatically refreshed every 10 minutes)

About weather observations | Map of weather stations | Latest weather observations for TAS | Other Formats
Station Details ID: 091331 Name: CAPE GRIM Lat: -40.68 Lon: 144.69 Height: 86.0 m
Data from the previous 72 hours. | See also: Recent months at Cape Grim
Date/Time
EDT
Temp
°C
App
Temp
°C
Dew
Point
Rel
Hum
%
Delta-T
°C
Wind Press
QNH
hPa
Press
MSL
hPa
Rain
since 9 am
mm
Dir
 
Spd
km/h
Gust
km/h
Spd
kts
Gust
kts
29/05:00am 11.8 6.3 5.9 67 2.8 ESE 24 28 13 15 1021.8 1021.7 0.0
29/04:30am 12.0 7.5 6.9 71 2.4 ESE 20 24 11 13 1021.8 1021.7 0.0
29/04:00am 13.4 7.1 7.2 66 3.0 E 30 37 16 20 1021.6 1021.5 0.0
29/03:30am 13.3 6.9 7.1 66 3.0 E 30 37 16 20 1021.7 1021.6 0.0
29/03:00am 14.0 8.6 8.2 68 2.9 E 26 35 14 19 1021.9 1021.8 0.0
29/02:30am 13.8 10.7 10.4 80 1.8 ENE 17 20 9 11 1022.0 1021.9 0.0
29/02:00am 12.4 9.1 9.6 83 1.4 NE 17 20 9 11 1022.1 1022.0 0.0
29/01:30am 13.2 9.8 10.4 83 1.5 NE 19 20 10 11 1022.1 1022.0 0.0
29/01:00am 13.0 9.3 10.2 83 1.4 NE 20 24 11 13 1022.2 1022.1 0.0
29/12:30am 13.1 9.4 10.3 83 1.5 NE 20 24 11 13 1022.2 1022.1 0.0
 
Date/Time
EDT
Temp
°C
App
Temp
°C
Dew
Point
Rel
Hum
%
Delta-T
°C
Wind Press
QNH
hPa
Press
MSL
hPa
Rain
since 9 am
mm
Dir
 
Spd
km/h
Gust
km/h
Spd
kts
Gust
kts
28/11:30pm 13.8 10.4 11.1 84 1.4 NE 20 26 11 14 1022.1 1022.0 0.0
28/11:00pm 13.9 10.9 10.5 80 1.8 NE 17 20 9 11 1022.1 1022.0 0.0
28/10:30pm 13.9 10.6 9.7 76 2.2 NE 17 19 9 10 1021.9 1021.8 0.0
28/10:00pm 14.0 10.7 9.4 74 2.4 NE 17 17 9 9 1021.8 1021.7 0.0
28/09:30pm 15.2 11.7 10.8 75 2.3 NNE 20 24 11 13 1021.4 1021.3 0.0
28/09:00pm 15.4 14.4 10.2 71 2.7 E 6 11 3 6 1021.4 1021.3 0.0
28/08:30pm 16.4 15.4 10.9 70 3.0 SSE 7 11 4 6 1021.1 1021.0 0.0
28/08:00pm 16.8 14.9 11.7 72 2.8 SSW 13 20 7 11 1020.9 1020.8 0.0
28/07:30pm 16.6 12.5 11.5 72 2.8 SSW 24 35 13 19 1020.9 1020.8 0.0
28/07:00pm 16.6 11.8 11.5 72 2.8 SSW 28 43 15 23 1020.8 1020.7 0.0
28/06:30pm 17.1 12.4 12.0 72 2.8 SSW 28 41 15 22 1020.8 1020.7 0.0
28/06:00pm 16.4 10.5 11.3 72 2.7 SW 33 44 18 24 1020.6 1020.7 0.0
28/05:30pm 16.2 9.0 10.5 69 3.0 SW 39 50 21 27 1020.9 1020.8 0.0
28/05:00pm 16.4 9.2 10.7 69 3.0 SW 39 46 21 25 1021.1 1021.0 0.0
28/04:30pm 16.1 9.4 9.8 66 3.3 SW 35 43 19 23 1021.3 1021.2 0.0
28/04:00pm 16.2 10.1 9.6 65 3.4 SW 32 41 17 22 1021.5 1021.4 0.0
28/03:30pm 16.4 9.9 9.1 62 3.8 SW 33 41 18 22 1021.8 1021.7 0.0
28/03:00pm 16.3 10.1 9.5 64 3.5 SW 32 39 17 21 1022.2 1022.1 0.0
28/02:30pm 16.8 10.9 10.6 67 3.3 SW 32 43 17 23 1022.5 1022.4 0.0
28/02:00pm 16.1 10.3 10.8 71 2.8 SW 32 39 17 21 1022.6 1022.5 0.0
28/01:30pm 16.4 11.1 11.3 72 2.8 SW 30 39 16 21 1022.8 1022.7 0.0
28/01:00pm 16.7 11.8 11.2 70 3.0 SW 28 35 15 19 1022.9 1022.8 0.0
28/12:30pm 16.9 12.7 11.0 68 3.2 SW 24 30 13 16 1023.0 1022.9 0.0
28/12:00pm 17.6 14.2 10.5 63 3.8 SW 19 26 10 14 1023.0 1022.9 0.0
28/11:30am 17.0 13.7 10.8 67 3.3 SW 19 26 10 14 1023.0 1022.9 0.0
28/11:00am 17.1 14.7 8.8 58 4.3 E 11 19 6 10 1022.9 1022.8 0.0
28/10:30am 16.9 13.6 9.6 62 3.8 E 17 22 9 12 1023.1 1023.0 0.0
28/10:00am 16.7 13.0 10.3 66 3.4 ESE 20 26 11 14 1022.9 1022.8 0.0
28/09:30am 16.1 12.0 10.0 67 3.2 ESE 22 28 12 15 1022.6 1022.5 0.0
28/09:00am 15.7 12.0 10.2 70 2.9 ESE 20 26 11 14 1022.4 1022.3 0.0
28/08:30am 14.6 10.6 9.2 70 2.8 SE 20 24 11 13 1022.2 1022.1 0.0
28/08:00am 13.3 9.2 8.6 73 2.4 SE 20 24 11 13 1021.7 1021.6 0.0
28/07:30am 12.4 7.8 8.3 76 2.0 SE 22 28 12 15 1021.3 1021.2 0.0
28/07:00am 11.9 6.9 8.0 77 1.9 SE 24 30 13 16 1020.8 1020.7 0.0
28/06:30am 11.4 6.8 8.1 80 1.6 SE 22 26 12 14 1020.4 1020.3 0.0
28/05:30am 11.1 6.6 8.5 84 1.3 SE 22 26 12 14 1019.8 1019.7 0.0
28/05:00am 11.1 6.5 8.3 83 1.4 SE 22 26 12 14 1019.6 1019.5 0.0
28/04:30am 11.3 7.1 8.3 82 1.5 SE 20 24 11 13 1019.5 1019.4 0.0
28/04:00am 11.7 7.2 8.7 82 1.5 SE 22 26 12 14 1019.5 1019.4 0.0
28/03:30am 10.8 5.8 8.2 84 1.3 SE 24 28 13 15 1019.5 1019.4 0.0
28/03:00am 10.8 5.8 8.0 83 1.4 ESE 24 28 13 15 1019.4 1019.3 0.0
28/02:30am 11.2 5.5 8.2 82 1.5 SE 28 33 15 18 1019.4 1019.3 0.0
28/02:00am 12.1 7.1 8.2 77 1.9 SE 24 35 13 19 1019.5 1019.4 0.0
28/01:30am 11.8 7.2 8.3 79 1.7 SSE 22 32 12 17 1019.6 1019.5 0.0
28/01:00am 11.7 7.2 8.4 80 1.6 SSE 22 30 12 16 1019.4 1019.3 0.0
28/12:30am 11.8 6.9 8.3 79 1.7 SSE 24 37 13 20 1019.4 1019.3 0.0
28/12:00am 12.0 6.3 8.3 78 1.8 S 28 39 15 21 1019.2 1019.1 0.0
 
Date/Time
EDT
Temp
°C
App
Temp
°C
Dew
Point
Rel
Hum
%
Delta-T
°C
Wind Press
QNH
hPa
Press
MSL
hPa
Rain
since 9 am
mm
Dir
 
Spd
km/h
Gust
km/h
Spd
kts
Gust
kts
27/11:30pm 12.5 6.1 8.4 76 2.0 S 32 43 17 23 1019.1 1018.9 0.0
27/11:03pm 12.8 6.5 8.9 77 2.0 S 32 50 17 27 1019.0 1018.8 0.0
27/11:00pm 12.8 5.9 8.7 76 2.1 S 35 50 19 27 1018.9 1018.7 0.0
27/10:48pm 12.8 5.9 8.9 77 2.0 S 35 57 19 31 1018.8 1018.6 0.0
27/10:30pm 13.0 6.2 9.1 77 2.0 S 35 48 19 26 1018.8 1018.6 0.0
27/10:00pm 13.4 5.9 9.5 77 2.0 SSW 39 56 21 30 1018.7 1018.5 0.0
27/09:30pm 13.6 5.6 9.1 74 2.3 SSW 41 59 22 32 1018.6 1018.4 0.0
27/09:08pm 13.7 6.1 9.0 73 2.4 SSW 39 61 21 33 1018.3 1018.1 0.0
27/09:00pm 13.8 5.4 8.8 72 2.5 SSW 43 56 23 30 1018.3 1018.1 0.0
27/08:30pm 14.1 4.8 9.1 72 2.6 SSW 48 63 26 34 1018.1 1017.9 0.0
27/08:14pm 14.3 5.4 9.1 71 2.7 SSW 46 67 25 36 1017.9 1017.7 0.0
27/08:00pm 14.3 4.9 8.7 69 2.8 SSW 48 61 26 33 1017.8 1017.6 0.0
27/07:30pm 14.6 6.0 8.8 68 3.0 SSW 44 59 24 32 1017.6 1017.5 0.0
27/07:00pm 14.8 6.3 9.4 70 2.8 SSW 44 63 24 34 1017.4 1017.3 0.0
27/06:41pm 15.0 6.8 9.6 70 2.8 SSW 43 61 23 33 1017.5 1017.4 0.0
27/06:30pm 15.0 6.2 9.4 69 2.9 SSW 46 61 25 33 1017.4 1017.3 0.0
27/06:07pm 15.1 7.2 9.5 69 2.9 SSW 41 59 22 32 1017.3 1017.2 0.0
27/06:00pm 15.3 7.0 9.2 67 3.1 SSW 43 59 23 32 1017.3 1017.2 0.0
27/05:30pm 15.5 8.0 9.4 67 3.2 SSW 39 54 21 29 1017.5 1017.4 0.0
27/05:07pm 15.5 7.8 8.5 63 3.6 SSW 39 57 21 31 1017.4 1017.3 0.0
27/05:00pm 15.5 7.4 8.5 63 3.6 SSW 41 54 22 29 1017.4 1017.3 0.0
27/04:30pm 15.6 7.8 9.9 69 3.0 SSW 41 54 22 29 1017.4 1017.3 0.0
27/04:00pm 15.8 8.1 8.8 63 3.6 SW 39 52 21 28 1017.5 1017.4 0.0
27/03:30pm 15.6 7.5 8.6 63 3.6 SW 41 54 22 29 1017.8 1017.6 0.0
27/03:00pm 15.5 8.5 8.5 63 3.6 SW 35 48 19 26 1017.8 1017.6 0.0
27/02:30pm 15.8 8.8 8.5 62 3.7 SW 35 44 19 24 1017.9 1017.7 0.0
27/02:00pm 15.9 8.9 8.4 61 3.8 SW 35 50 19 27 1018.0 1017.8 0.0
27/01:30pm 15.5 8.8 8.3 62 3.7 SW 33 44 18 24 1018.3 1018.1 0.0
27/01:00pm 15.8 9.5 9.0 64 3.5 SSW 32 43 17 23 1018.3 1018.1 0.0
27/12:30pm 15.1 9.1 8.8 66 3.2 SSW 30 41 16 22 1018.6 1018.4 0.0
27/12:00pm 14.8 9.3 9.2 69 2.9 SW 28 41 15 22 1018.6 1018.4 0.0
27/11:30am 13.3 5.1 9.7 79 1.9 SW 43 54 23 29 1018.6 1018.4 0.0
27/11:10am 14.7 8.6 8.4 66 3.2 SW 30 48 16 26 1018.5 1018.3 0.0
27/11:00am 15.2 9.0 7.7 61 3.7 SW 30 39 16 21 1018.5 1018.3 0.0
27/10:30am 15.1 9.6 7.6 61 3.7 SW 26 37 14 20 1018.5 1018.3 0.0
27/10:00am 14.8 9.6 7.4 61 3.7 SW 24 35 13 19 1018.5 1018.3 0.0
27/09:30am 14.9 10.0 8.6 66 3.2 SW 24 33 13 18 1018.3 1018.1 0.0
27/09:00am 14.7 10.0 7.7 63 3.5 SSW 22 28 12 15 1018.1 1017.9 0.2
27/08:30am 14.0 8.5 5.9 58 3.9 SW 24 30 13 16 1018.0 1017.8 0.2
27/08:00am 14.0 9.0 8.2 68 2.9 SSW 24 32 13 17 1017.8 1017.6 0.2
27/07:30am 13.6 9.1 8.4 71 2.6 SSW 22 32 12 17 1017.5 1017.4 0.2
27/07:00am 12.6 9.5 8.7 77 2.0 SSW 15 20 8 11 1017.3 1017.2 0.2
27/06:30am 12.3 8.7 8.4 77 1.9 S 17 22 9 12 1017.2 1017.1 0.2
27/06:00am 11.9 8.6 8.0 77 1.9 S 15 20 8 11 1016.9 1016.8 0.2
27/05:30am 12.0 9.0 7.7 75 2.1 S 13 17 7 9 1016.6 1016.5 0.2
27/05:00am 12.1 8.3 7.6 74 2.2 S 17 20 9 11 1016.6 1016.5 0.2
27/04:30am 12.7 9.0 7.8 72 2.4 S 17 30 9 16 1016.7 1016.6 0.2
27/04:00am 13.2 8.3 8.3 72 2.4 SSW 24 32 13 17 1016.8 1016.7 0.2
27/03:30am 13.1 6.7 7.1 67 2.9 SW 30 35 16 19 1017.2 1017.1 0.2
27/03:00am 12.9 7.7 7.1 68 2.8 SW 24 32 13 17 1017.3 1017.2 0.2
27/02:30am 13.1 7.2 7.3 68 2.8 SW 28 33 15 18 1017.4 1017.3 0.2
27/02:00am 13.2 8.4 7.4 68 2.8 SW 22 30 12 16 1017.5 1017.4 0.2
27/01:30am 13.0 8.1 6.8 66 3.0 SW 22 33 12 18 1017.6 1017.5 0.2
27/01:00am 13.3 9.0 7.7 69 2.8 SW 20 28 11 15 1017.9 1017.7 0.2
27/12:30am 13.1 8.3 7.3 68 2.8 SW 22 30 12 16 1017.9 1017.7 0.2
27/12:00am 13.2 8.8 7.6 69 2.7 SW 20 28 11 15 1018.0 1017.8 0.2
 
Date/Time
EDT
Temp
°C
App
Temp
°C
Dew
Point
Rel
Hum
%
Delta-T
°C
Wind Press
QNH
hPa
Press
MSL
hPa
Rain
since 9 am
mm
Dir
 
Spd
km/h
Gust
km/h
Spd
kts
Gust
kts
26/11:30pm 13.2 8.4 7.2 67 2.9 SW 22 32 12 17 1018.1 1017.9 0.2
26/11:00pm 13.2 8.0 7.2 67 2.9 SW 24 32 13 17 1018.2 1018.0 0.2
26/10:30pm 13.1 8.5 6.5 64 3.2 SW 20 28 11 15 1018.4 1018.2 0.2
26/10:00pm 13.0 8.4 6.6 65 3.1 SW 20 28 11 15 1018.2 1018.0 0.2
26/09:30pm 13.0 8.5 6.8 66 3.0 SSW 20 28 11 15 1018.0 1017.8 0.2
26/09:00pm 13.0 7.3 6.6 65 3.1 SW 26 32 14 17 1017.8 1017.6 0.2
26/08:30pm 13.2 8.4 7.2 67 2.9 SW 22 30 12 16 1017.5 1017.4 0.2
26/08:00pm 13.5 8.2 6.6 63 3.3 SW 24 35 13 19 1017.3 1017.2 0.2
26/07:30pm 14.3 8.8 7.6 64 3.3 SW 26 35 14 19 1016.9 1016.8 0.2
26/07:00pm 14.7 8.8 7.5 62 3.6 SW 28 35 15 19 1016.7 1016.6 0.2
26/06:30pm 14.7 7.9 6.8 59 3.9 SW 32 37 17 20 1016.6 1016.5 0.2
26/06:00pm 14.8 7.9 7.1 60 3.8 SW 33 39 18 21 1016.6 1016.5 0.2
26/05:30pm 15.4 9.2 7.9 61 3.8 SW 30 39 16 21 1016.6 1016.5 0.2
26/05:00pm 15.4 8.6 6.9 57 4.2 SW 32 43 17 23 1016.6 1016.5 0.2
26/04:30pm 15.5 8.1 6.8 56 4.3 SW 35 43 19 23 1016.8 1016.7 0.2
26/04:00pm 16.0 8.9 8.0 59 4.0 SW 35 44 19 24 1016.7 1016.6 0.2
26/03:30pm 15.3 8.7 7.6 60 3.8 SW 32 43 17 23 1016.9 1016.8 0.2
26/03:00pm 15.5 8.0 6.2 54 4.5 SW 35 46 19 25 1016.8 1016.7 0.2
26/02:30pm 16.0 9.1 7.2 56 4.4 SW 33 43 18 23 1016.7 1016.6 0.2
26/02:00pm 15.3 8.0 7.3 59 4.0 SW 35 44 19 24 1016.8 1016.7 0.2
26/01:30pm 15.4 8.2 5.9 53 4.6 SW 33 44 18 24 1017.0 1016.9 0.2
26/01:00pm 15.3 8.0 5.5 52 4.7 SW 33 44 18 24 1017.0 1016.9 0.2
26/12:30pm 15.5 8.2 7.3 58 4.1 SW 35 43 19 23 1016.9 1016.8 0.2
26/12:00pm 14.4 7.2 7.5 63 3.4 SW 35 44 19 24 1017.0 1016.9 0.2
26/11:30am 14.3 7.5 6.9 61 3.6 SW 32 43 17 23 1016.7 1016.6 0.2
26/11:00am 14.4 7.6 7.9 65 3.2 SW 33 43 18 23 1016.6 1016.5 0.0
26/10:30am 14.6 8.3 8.8 68 3.0 SW 32 44 17 24 1016.5 1016.4 0.0
26/10:00am 13.8 7.0 7.8 67 3.0 SW 33 43 18 23 1016.2 1016.1 0.0
26/09:30am 13.8 7.8 7.1 64 3.3 SW 28 43 15 23 1015.9 1015.8 0.0
26/09:00am 13.3 7.5 6.4 63 3.3 WSW 26 35 14 19 1015.5 1015.4 0.8
26/08:30am 13.6 6.6 6.0 60 3.6 SW 32 43 17 23 1015.3 1015.2 0.8
26/08:00am 13.0 7.3 6.6 65 3.1 SW 26 44 14 24 1014.8 1014.7 0.8
26/07:30am 12.9 7.0 5.8 62 3.4 SW 26 39 14 21 1014.5 1014.4 0.8
26/07:00am 12.7 5.9 6.7 67 2.9 SW 32 48 17 26 1013.9 1013.8 0.8
26/06:30am 12.3 5.6 7.2 71 2.5 SW 32 56 17 30 1013.6 1013.5 0.8
26/06:00am 11.4 5.8 7.3 76 2.0 SW 26 44 14 24 1013.3 1013.2 0.8
26/05:30am 11.5 4.2 7.0 74 2.2 SW 35 56 19 30 1012.9 1012.8 0.8
26/05:28am 11.7 4.3 6.8 72 2.3 SW 35 56 19 30 1012.9 1012.8 0.8

Other Formats:

Comma delimited format used in spreadsheet applications
http://www.bom.gov.au/fwo/IDT60801/IDT60801.95954.axf

JavaScript Object Notation format (JSON) in row-major order
http://www.bom.gov.au/fwo/IDT60801/IDT60801.95954.json